sensor_id;sensor_type;location;lat;lon;timestamp;P1;durP1;ratioP1;P2;durP2;ratioP2
42092;SDS011;28974;50.316;18.960;2023-07-28T00:00:30;10.88;;;3.03;;
42092;SDS011;28974;50.316;18.960;2023-07-28T00:12:30;7.82;;;3.55;;
42092;SDS011;28974;50.316;18.960;2023-07-28T00:24:30;10.23;;;3.88;;
42092;SDS011;28974;50.316;18.960;2023-07-28T00:36:31;11.45;;;4.85;;
42092;SDS011;28974;50.316;18.960;2023-07-28T00:48:32;10.05;;;3.55;;
42092;SDS011;28974;50.316;18.960;2023-07-28T01:00:37;5.80;;;2.80;;
42092;SDS011;28974;50.316;18.960;2023-07-28T01:12:47;6.45;;;3.58;;
42092;SDS011;28974;50.316;18.960;2023-07-28T01:25:02;8.38;;;3.75;;
42092;SDS011;28974;50.316;18.960;2023-07-28T01:37:06;12.93;;;3.58;;
42092;SDS011;28974;50.316;18.960;2023-07-28T01:49:13;6.78;;;2.83;;
42092;SDS011;28974;50.316;18.960;2023-07-28T02:01:15;5.65;;;2.80;;
42092;SDS011;28974;50.316;18.960;2023-07-28T02:13:15;8.98;;;3.38;;
42092;SDS011;28974;50.316;18.960;2023-07-28T02:25:15;8.90;;;3.17;;
42092;SDS011;28974;50.316;18.960;2023-07-28T02:37:19;16.42;;;5.25;;
42092;SDS011;28974;50.316;18.960;2023-07-28T02:49:19;21.27;;;4.88;;
42092;SDS011;28974;50.316;18.960;2023-07-28T03:01:19;21.77;;;4.78;;
42092;SDS011;28974;50.316;18.960;2023-07-28T03:13:25;9.93;;;4.40;;
42092;SDS011;28974;50.316;18.960;2023-07-28T03:25:25;9.25;;;3.78;;
42092;SDS011;28974;50.316;18.960;2023-07-28T03:37:26;7.28;;;3.80;;
42092;SDS011;28974;50.316;18.960;2023-07-28T03:49:27;11.57;;;4.93;;
42092;SDS011;28974;50.316;18.960;2023-07-28T04:01:33;12.00;;;3.65;;
42092;SDS011;28974;50.316;18.960;2023-07-28T04:13:34;9.10;;;4.15;;
42092;SDS011;28974;50.316;18.960;2023-07-28T04:25:39;12.45;;;4.20;;
42092;SDS011;28974;50.316;18.960;2023-07-28T04:37:54;7.70;;;4.10;;
42092;SDS011;28974;50.316;18.960;2023-07-28T04:50:14;12.70;;;3.72;;
42092;SDS011;28974;50.316;18.960;2023-07-28T05:02:37;5.00;;;2.97;;
42092;SDS011;28974;50.316;18.960;2023-07-28T05:14:40;9.20;;;2.97;;
42092;SDS011;28974;50.316;18.960;2023-07-28T05:27:08;6.28;;;3.35;;
42092;SDS011;28974;50.316;18.960;2023-07-28T05:39:08;6.88;;;3.22;;
42092;SDS011;28974;50.316;18.960;2023-07-28T05:51:14;13.18;;;4.85;;
42092;SDS011;28974;50.316;18.960;2023-07-28T06:03:15;11.23;;;5.38;;
42092;SDS011;28974;50.316;18.960;2023-07-28T06:15:29;14.40;;;5.70;;
42092;SDS011;28974;50.316;18.960;2023-07-28T06:27:29;13.27;;;5.60;;
42092;SDS011;28974;50.316;18.960;2023-07-28T06:39:30;9.50;;;5.65;;
42092;SDS011;28974;50.316;18.960;2023-07-28T06:51:30;11.52;;;6.82;;
42092;SDS011;28974;50.316;18.960;2023-07-28T07:03:45;13.00;;;5.68;;
42092;SDS011;28974;50.316;18.960;2023-07-28T07:15:46;13.45;;;7.32;;
42092;SDS011;28974;50.316;18.960;2023-07-28T07:27:46;15.13;;;7.18;;
42092;SDS011;28974;50.316;18.960;2023-07-28T07:39:46;18.27;;;7.28;;
42092;SDS011;28974;50.316;18.960;2023-07-28T07:51:47;11.70;;;7.35;;
42092;SDS011;28974;50.316;18.960;2023-07-28T08:03:47;17.00;;;6.50;;
42092;SDS011;28974;50.316;18.960;2023-07-28T08:15:47;13.75;;;6.55;;
42092;SDS011;28974;50.316;18.960;2023-07-28T08:27:52;17.80;;;8.63;;
42092;SDS011;28974;50.316;18.960;2023-07-28T08:39:52;11.13;;;6.53;;
42092;SDS011;28974;50.316;18.960;2023-07-28T08:51:56;10.75;;;6.70;;
42092;SDS011;28974;50.316;18.960;2023-07-28T09:03:58;9.23;;;6.00;;
42092;SDS011;28974;50.316;18.960;2023-07-28T09:15:58;12.85;;;6.28;;
42092;SDS011;28974;50.316;18.960;2023-07-28T09:27:59;13.43;;;6.47;;
42092;SDS011;28974;50.316;18.960;2023-07-28T09:40:00;10.75;;;6.03;;
42092;SDS011;28974;50.316;18.960;2023-07-28T09:52:05;11.80;;;6.30;;
42092;SDS011;28974;50.316;18.960;2023-07-28T10:04:06;14.18;;;6.65;;
42092;SDS011;28974;50.316;18.960;2023-07-28T10:16:06;13.73;;;5.05;;
42092;SDS011;28974;50.316;18.960;2023-07-28T10:28:25;11.65;;;5.57;;
42092;SDS011;28974;50.316;18.960;2023-07-28T10:40:32;10.35;;;4.85;;
42092;SDS011;28974;50.316;18.960;2023-07-28T10:52:38;9.25;;;4.70;;
42092;SDS011;28974;50.316;18.960;2023-07-28T11:04:39;11.43;;;4.43;;
42092;SDS011;28974;50.316;18.960;2023-07-28T11:16:45;5.50;;;4.60;;
42092;SDS011;28974;50.316;18.960;2023-07-28T11:28:47;9.10;;;3.65;;
42092;SDS011;28974;50.316;18.960;2023-07-28T11:40:48;7.47;;;3.40;;
42092;SDS011;28974;50.316;18.960;2023-07-28T11:52:48;8.13;;;2.33;;
42092;SDS011;28974;50.316;18.960;2023-07-28T12:04:48;7.22;;;2.92;;
42092;SDS011;28974;50.316;18.960;2023-07-28T12:16:50;13.38;;;3.53;;
42092;SDS011;28974;50.316;18.960;2023-07-28T12:28:51;16.42;;;2.38;;
42092;SDS011;28974;50.316;18.960;2023-07-28T12:40:51;2.83;;;2.15;;
42092;SDS011;28974;50.316;18.960;2023-07-28T12:52:52;5.38;;;2.13;;
42092;SDS011;28974;50.316;18.960;2023-07-28T13:04:52;4.18;;;2.40;;
42092;SDS011;28974;50.316;18.960;2023-07-28T13:16:53;2.67;;;1.90;;
42092;SDS011;28974;50.316;18.960;2023-07-28T13:28:56;2.63;;;2.10;;
42092;SDS011;28974;50.316;18.960;2023-07-28T13:40:58;5.95;;;1.83;;
42092;SDS011;28974;50.316;18.960;2023-07-28T13:52:59;3.42;;;2.00;;
42092;SDS011;28974;50.316;18.960;2023-07-28T14:04:59;2.00;;;1.67;;
42092;SDS011;28974;50.316;18.960;2023-07-28T14:16:59;2.30;;;2.10;;
42092;SDS011;28974;50.316;18.960;2023-07-28T14:28:59;3.03;;;1.73;;
42092;SDS011;28974;50.316;18.960;2023-07-28T14:41:00;3.60;;;2.10;;
42092;SDS011;28974;50.316;18.960;2023-07-28T14:53:00;4.20;;;2.00;;
42092;SDS011;28974;50.316;18.960;2023-07-28T15:05:00;3.67;;;2.63;;
42092;SDS011;28974;50.316;18.960;2023-07-28T15:17:00;3.47;;;2.60;;
42092;SDS011;28974;50.316;18.960;2023-07-28T15:29:01;3.63;;;2.53;;
42092;SDS011;28974;50.316;18.960;2023-07-28T15:41:01;1.20;;;1.10;;
42092;SDS011;28974;50.316;18.960;2023-07-28T15:53:02;4.43;;;2.90;;
42092;SDS011;28974;50.316;18.960;2023-07-28T16:05:02;4.75;;;2.22;;
42092;SDS011;28974;50.316;18.960;2023-07-28T16:17:03;8.93;;;2.00;;
42092;SDS011;28974;50.316;18.960;2023-07-28T16:29:03;10.65;;;2.95;;
42092;SDS011;28974;50.316;18.960;2023-07-28T16:41:04;8.07;;;2.42;;
42092;SDS011;28974;50.316;18.960;2023-07-28T16:53:04;4.72;;;2.83;;
42092;SDS011;28974;50.316;18.960;2023-07-28T17:05:04;4.97;;;3.00;;
42092;SDS011;28974;50.316;18.960;2023-07-28T17:17:04;3.80;;;2.08;;
42092;SDS011;28974;50.316;18.960;2023-07-28T17:29:05;3.22;;;1.90;;
42092;SDS011;28974;50.316;18.960;2023-07-28T17:41:05;3.15;;;1.50;;
42092;SDS011;28974;50.316;18.960;2023-07-28T17:53:06;6.97;;;2.67;;
42092;SDS011;28974;50.316;18.960;2023-07-28T18:05:06;3.40;;;2.38;;
42092;SDS011;28974;50.316;18.960;2023-07-28T18:17:07;3.78;;;2.55;;
42092;SDS011;28974;50.316;18.960;2023-07-28T18:29:07;12.88;;;3.13;;
42092;SDS011;28974;50.316;18.960;2023-07-28T18:41:08;5.05;;;3.78;;
42092;SDS011;28974;50.316;18.960;2023-07-28T18:53:08;6.15;;;3.63;;
42092;SDS011;28974;50.316;18.960;2023-07-28T19:05:09;6.00;;;3.33;;
42092;SDS011;28974;50.316;18.960;2023-07-28T19:17:09;7.68;;;4.85;;
42092;SDS011;28974;50.316;18.960;2023-07-28T19:29:10;9.77;;;4.95;;
42092;SDS011;28974;50.316;18.960;2023-07-28T19:41:10;14.80;;;4.40;;
42092;SDS011;28974;50.316;18.960;2023-07-28T19:53:12;9.48;;;5.40;;
42092;SDS011;28974;50.316;18.960;2023-07-28T20:05:12;8.27;;;5.35;;
42092;SDS011;28974;50.316;18.960;2023-07-28T20:17:14;10.90;;;5.30;;
42092;SDS011;28974;50.316;18.960;2023-07-28T20:29:14;7.78;;;4.82;;
42092;SDS011;28974;50.316;18.960;2023-07-28T20:41:15;11.25;;;4.57;;
42092;SDS011;28974;50.316;18.960;2023-07-28T20:53:17;11.00;;;5.75;;
42092;SDS011;28974;50.316;18.960;2023-07-28T21:05:20;9.88;;;5.78;;
42092;SDS011;28974;50.316;18.960;2023-07-28T21:17:21;17.42;;;8.35;;
42092;SDS011;28974;50.316;18.960;2023-07-28T21:29:21;12.68;;;7.38;;
42092;SDS011;28974;50.316;18.960;2023-07-28T21:41:23;17.42;;;7.88;;
42092;SDS011;28974;50.316;18.960;2023-07-28T21:53:23;9.90;;;7.72;;
42092;SDS011;28974;50.316;18.960;2023-07-28T22:05:23;14.90;;;10.52;;
42092;SDS011;28974;50.316;18.960;2023-07-28T22:17:24;23.52;;;11.48;;
42092;SDS011;28974;50.316;18.960;2023-07-28T22:29:24;19.40;;;12.07;;
42092;SDS011;28974;50.316;18.960;2023-07-28T22:41:24;23.23;;;13.75;;
42092;SDS011;28974;50.316;18.960;2023-07-28T22:53:29;22.20;;;13.93;;
42092;SDS011;28974;50.316;18.960;2023-07-28T23:05:33;21.02;;;12.95;;
42092;SDS011;28974;50.316;18.960;2023-07-28T23:17:36;26.77;;;14.45;;
42092;SDS011;28974;50.316;18.960;2023-07-28T23:29:37;24.10;;;15.02;;
42092;SDS011;28974;50.316;18.960;2023-07-28T23:41:37;24.90;;;13.23;;
42092;SDS011;28974;50.316;18.960;2023-07-28T23:53:37;22.65;;;13.73;;
